Observation data for Knox City on 11/17/2019      Previous  Date  Next       Current Mesonet Observations  Soil Data  Daily Summary Page  Observations in Plain Language
KKN1 170600Z 20004KT 09/03 A2999 RMK A01 T00940026  RH  063%=      5-min Rain = 0
KKN1 170605Z 20005KT 09/03 A2999 RMK A01 T00920026  RH  064%=      5-min Rain = 0
KKN1 170610Z 20006KT 09/03 A2999 RMK A01 T00890026  RH  066%=      5-min Rain = 0
KKN1 170615Z 20006KT 09/03 A2999 RMK A01 T00870027  RH  067%=      5-min Rain = 0
KKN1 170620Z 20006KT 09/03 A2999 RMK A01 T00850027  RH  068%=      5-min Rain = 0
KKN1 170625Z 18006KT 09/03 A2998 RMK A01 T00850028  RH  069%=      5-min Rain = 0
KKN1 170630Z 18005KT 08/03 A2998 RMK A01 T00810027  RH  070%=      5-min Rain = 0
KKN1 170635Z 17005KT 08/03 A2998 RMK A01 T00790028  RH  071%=      5-min Rain = 0
KKN1 170640Z 17005KT 08/03 A2998 RMK A01 T00790029  RH  072%=      5-min Rain = 0
KKN1 170645Z 17004KT 08/03 A2998 RMK A01 T00790028  RH  071%=      5-min Rain = 0
KKN1 170650Z 16003KT 08/03 A2998 RMK A01 T00800028  RH  071%=      5-min Rain = 0
KKN1 170655Z 17003KT 08/03 A2998 RMK A01 T00810029  RH  071%=      5-min Rain = 0
KKN1 170700Z 18002KT 08/03 A2998 RMK A01 T00820028  RH  070%=      5-min Rain = 0
KKN1 170705Z 19002KT 08/03 A2999 RMK A01 T00820028  RH  070%=      5-min Rain = 0
KKN1 170710Z 19003KT 08/03 A2999 RMK A01 T00830028  RH  069%=      5-min Rain = 0
KKN1 170715Z 18005KT 08/03 A2999 RMK A01 T00840030  RH  070%=      5-min Rain = 0
KKN1 170720Z 17006KT 08/03 A2998 RMK A01 T00800032  RH  073%=      5-min Rain = 0
KKN1 170725Z 17007KT 08/03 A2998 RMK A01 T00790032  RH  074%=      5-min Rain = 0
KKN1 170730Z 16005KT 08/03 A2998 RMK A01 T00780032  RH  074%=      5-min Rain = 0
KKN1 170735Z 14005KT 08/03 A2998 RMK A01 T00760032  RH  075%=      5-min Rain = 0
KKN1 170740Z 14005KT 08/03 A2998 RMK A01 T00760031  RH  074%=      5-min Rain = 0
KKN1 170745Z 16005KT 08/03 A2998 RMK A01 T00760032  RH  075%=      5-min Rain = 0
KKN1 170750Z 16007KT 08/03 A2998 RMK A01 T00770032  RH  075%=      5-min Rain = 0
KKN1 170755Z 16007KT 08/03 A2998 RMK A01 T00780032  RH  074%=      5-min Rain = 0
KKN1 170800Z 16006KT 08/03 A2998 RMK A01 T00780031  RH  073%=      5-min Rain = 0
KKN1 170805Z 16006KT 08/03 A2998 RMK A01 T00790031  RH  073%=      5-min Rain = 0
KKN1 170810Z 16006KT 08/03 A2998 RMK A01 T00790032  RH  073%=      5-min Rain = 0
KKN1 170815Z 16007KT 08/03 A2998 RMK A01 T00800032  RH  073%=      5-min Rain = 0
KKN1 170820Z 16007KT 08/03 A2998 RMK A01 T00800033  RH  073%=      5-min Rain = 0
KKN1 170825Z 16008KT 08/03 A2998 RMK A01 T00800033  RH  074%=      5-min Rain = 0
KKN1 170830Z 16007KT 08/03 A2998 RMK A01 T00800034  RH  074%=      5-min Rain = 0
KKN1 170835Z 16008KT 08/03 A2998 RMK A01 T00810034  RH  074%=      5-min Rain = 0
KKN1 170840Z 16008KT 08/03 A2998 RMK A01 T00800034  RH  074%=      5-min Rain = 0
KKN1 170845Z 16007KT 08/03 A2998 RMK A01 T00810034  RH  074%=      5-min Rain = 0
KKN1 170850Z 16008KT 08/03 A2997 RMK A01 T00810034  RH  074%=      5-min Rain = 0
KKN1 170855Z 16008KT 08/03 A2997 RMK A01 T00800034  RH  074%=      5-min Rain = 0
KKN1 170900Z 16007KT 08/03 A2997 RMK A01 T00790033  RH  074%=      5-min Rain = 0
KKN1 170905Z 16007KT 08/03 A2997 RMK A01 T00780032  RH  074%=      5-min Rain = 0
KKN1 170910Z 17007KT 08/03 A2997 RMK A01 T00760032  RH  075%=      5-min Rain = 0
KKN1 170915Z 17007KT 07/03 A2997 RMK A01 T00730031  RH  076%=      5-min Rain = 0
KKN1 170920Z 17006KT 07/03 A2998 RMK A01 T00720031  RH  077%=      5-min Rain = 0
KKN1 170925Z 17006KT 07/03 A2998 RMK A01 T00700031  RH  077%=      5-min Rain = 0
KKN1 170930Z 16006KT 07/03 A2998 RMK A01 T00680030  RH  078%=      5-min Rain = 0
KKN1 170935Z 17006KT 07/03 A2998 RMK A01 T00660030  RH  079%=      5-min Rain = 0
KKN1 170940Z 17006KT 06/03 A2998 RMK A01 T00630029  RH  080%=      5-min Rain = 0
KKN1 170945Z 17007KT 06/03 A2998 RMK A01 T00620029  RH  081%=      5-min Rain = 0
KKN1 170950Z 17006KT 06/03 A2998 RMK A01 T00610029  RH  081%=      5-min Rain = 0
KKN1 170955Z 17006KT 06/03 A2998 RMK A01 T00610029  RH  082%=      5-min Rain = 0
KKN1 171000Z 17005KT 06/03 A2998 RMK A01 T00600029  RH  082%=      5-min Rain = 0
KKN1 171005Z 17005KT 06/03 A2999 RMK A01 T00600029  RH  082%=      5-min Rain = 0
KKN1 171010Z 17004KT 06/03 A2999 RMK A01 T00590029  RH  083%=      5-min Rain = 0
KKN1 171015Z 17004KT 06/03 A2999 RMK A01 T00570029  RH  083%=      5-min Rain = 0
KKN1 171020Z 17002KT 06/03 A2999 RMK A01 T00560028  RH  084%=      5-min Rain = 0
KKN1 171025Z 19002KT 05/03 A2999 RMK A01 T00540027  RH  084%=      5-min Rain = 0
KKN1 171030Z 18004KT 06/03 A2999 RMK A01 T00560028  RH  083%=      5-min Rain = 0
KKN1 171035Z 18005KT 05/03 A2999 RMK A01 T00540027  RH  084%=      5-min Rain = 0
KKN1 171040Z 18006KT 05/03 A2999 RMK A01 T00520027  RH  086%=      5-min Rain = 0
KKN1 171045Z 19006KT 05/03 A2999 RMK A01 T00530027  RH  085%=      5-min Rain = 0
KKN1 171050Z 19005KT 05/03 A2999 RMK A01 T00520027  RH  085%=      5-min Rain = 0
KKN1 171055Z 22002KT 05/03 A2999 RMK A01 T00500025  RH  085%=      5-min Rain = 0
KKN1 171100Z 27002KT 04/02 A2999 RMK A01 T00430021  RH  087%=      5-min Rain = 0
KKN1 171105Z 25004KT 05/03 A2999 RMK A01 T00450026  RH  089%=      5-min Rain = 0
KKN1 171110Z 23004KT 05/03 A2999 RMK A01 T00480026  RH  087%=      5-min Rain = 0
KKN1 171115Z 23005KT 05/03 A2999 RMK A01 T00470025  RH  087%=      5-min Rain = 0
KKN1 171120Z 24005KT 05/03 A30 RMK A01 T00470026  RH  088%=      5-min Rain = 0
KKN1 171125Z 26005KT 05/03 A30 RMK A01 T00500029  RH  087%=      5-min Rain = 0
KKN1 171130Z 27004KT 05/03 A30 RMK A01 T00490028  RH  088%=      5-min Rain = 0
KKN1 171135Z 27003KT 05/03 A30 RMK A01 T00460026  RH  089%=      5-min Rain = 0
KKN1 171140Z 28004KT 04/03 A30 RMK A01 T00420025  RH  090%=      5-min Rain = 0
KKN1 171145Z 29005KT 04/02 A3001 RMK A01 T00380021  RH  090%=      5-min Rain = 0
KKN1 171150Z 29004KT 04/02 A3001 RMK A01 T00370023  RH  092%=      5-min Rain = 0
KKN1 171155Z 30003KT 04/03 A3002 RMK A01 T00380025  RH  092%=      5-min Rain = 0
KKN1 171200Z 27003KT 04/03 A3001 RMK A01 T00400027  RH  093%=      5-min Rain = 0
KKN1 171205Z 27003KT 04/03 A3002 RMK A01 T00430030  RH  093%=      5-min Rain = 0
KKN1 171210Z 23003KT 04/03 A3001 RMK A01 T00440029  RH  092%=      5-min Rain = 0
KKN1 171215Z 21002KT 04/03 A3002 RMK A01 T00410026  RH  092%=      5-min Rain = 0
KKN1 171220Z 22003KT 04/03 A3002 RMK A01 T00380025  RH  092%=      5-min Rain = 0
KKN1 171225Z 27004KT 04/03 A3002 RMK A01 T00400027  RH  093%=      5-min Rain = 0
KKN1 171230Z 28004KT 04/03 A3003 RMK A01 T00380025  RH  093%=      5-min Rain = 0
KKN1 171235Z 28004KT 04/03 A3003 RMK A01 T00400028  RH  093%=      5-min Rain = 0
KKN1 171240Z 28004KT 04/03 A3003 RMK A01 T00390026  RH  093%=      5-min Rain = 0
KKN1 171245Z 30006KT 04/03 A3003 RMK A01 T00400027  RH  093%=      5-min Rain = 0
KKN1 171250Z 31006KT 04/03 A3004 RMK A01 T00420028  RH  093%=      5-min Rain = 0
KKN1 171255Z 31006KT 05/03 A3005 RMK A01 T00460033  RH  093%=      5-min Rain = 0
KKN1 171300Z 31005KT 05/03 A3005 RMK A01 T00480032  RH  091%=      5-min Rain = 0
KKN1 171305Z 32005KT 05/03 A3005 RMK A01 T00470031  RH  091%=      5-min Rain = 0
KKN1 171310Z 33005KT 05/03 A3006 RMK A01 T00460030  RH  091%=      5-min Rain = 0
KKN1 171315Z 34006KT 05/03 A3006 RMK A01 T00450030  RH  091%=      5-min Rain = 0
KKN1 171320Z 34006KT 04/03 A3006 RMK A01 T00430027  RH  091%=      5-min Rain = 0
KKN1 171325Z 34006KT 04/03 A3006 RMK A01 T00420027  RH  092%=      5-min Rain = 0
KKN1 171330Z 34007KT 05/03 A3007 RMK A01 T00470029  RH  090%=      5-min Rain = 0
KKN1 171335Z 34006KT 05/03 A3007 RMK A01 T00490027  RH  087%=      5-min Rain = 0
KKN1 171340Z 35007KT 05/03 A3007 RMK A01 T00520028  RH  086%=      5-min Rain = 0
KKN1 171345Z 35009KT 06/03 A3007 RMK A01 T00590029  RH  083%=      5-min Rain = 0
KKN1 171350Z 35010G15KT 07/03 A3008 RMK A01 T00650029  RH  079%=      5-min Rain = 0
KKN1 171355Z 35010KT 07/03 A3008 RMK A01 T00690029  RH  077%=      5-min Rain = 0
KKN1 171400Z 35009KT 07/03 A3008 RMK A01 T00710028  RH  075%=      5-min Rain = 0
KKN1 171405Z 35010KT 07/03 A3009 RMK A01 T00740028  RH  074%=      5-min Rain = 0
KKN1 171410Z 35009KT 08/03 A3009 RMK A01 T00760028  RH  073%=      5-min Rain = 0
KKN1 171415Z 35011G16KT 08/03 A3009 RMK A01 T00800029  RH  071%=      5-min Rain = 0
KKN1 171420Z 35013G18KT 08/03 A3009 RMK A01 T00840028  RH  069%=      5-min Rain = 0
KKN1 171425Z 36014KT 09/03 A301 RMK A01 T00890028  RH  067%=      5-min Rain = 0
KKN1 171430Z 35013G20KT 09/03 A301 RMK A01 T00930028  RH  065%=      5-min Rain = 0
KKN1 171435Z 35014G21KT 10/03 A301 RMK A01 T00960029  RH  064%=      5-min Rain = 0
KKN1 171440Z 36016G23KT 10/03 A301 RMK A01 T00990028  RH  062%=      5-min Rain = 0
KKN1 171445Z 00016G24KT 10/03 A3011 RMK A01 T01010027  RH  061%=      5-min Rain = 0
KKN1 171450Z 00016G21KT 10/03 A3011 RMK A01 T01020027  RH  060%=      5-min Rain = 0
KKN1 171455Z 36017G22KT 10/03 A3011 RMK A01 T01040027  RH  060%=      5-min Rain = 0
KKN1 171500Z 36017G23KT 10/03 A3011 RMK A01 T01040027  RH  060%=      5-min Rain = 0
KKN1 171505Z 00015G20KT 11/03 A3011 RMK A01 T01060028  RH  059%=      5-min Rain = 0
KKN1 171510Z 00016G22KT 11/03 A3011 RMK A01 T01090029  RH  059%=      5-min Rain = 0
KKN1 171515Z 36016G21KT 11/03 A3011 RMK A01 T01100029  RH  058%=      5-min Rain = 0
KKN1 171520Z 00016KT 11/03 A3011 RMK A01 T01120029  RH  058%=      5-min Rain = 0
KKN1 171525Z 36014G19KT 12/03 A3012 RMK A01 T01170031  RH  057%=      5-min Rain = 0
KKN1 171530Z 00013KT 12/03 A3012 RMK A01 T01200032  RH  056%=      5-min Rain = 0
KKN1 171535Z 01014G21KT 12/03 A3011 RMK A01 T01220032  RH  055%=      5-min Rain = 0
KKN1 171540Z 01014G21KT 13/03 A3011 RMK A01 T01260032  RH  054%=      5-min Rain = 0
KKN1 171545Z 01018G27KT 13/03 A3011 RMK A01 T01280031  RH  052%=      5-min Rain = 0
KKN1 171550Z 01021G29KT 13/03 A3011 RMK A01 T01290030  RH  052%=      5-min Rain = 0
KKN1 171555Z 01018G23KT 13/03 A3011 RMK A01 T01290031  RH  052%=      5-min Rain = 0
KKN1 171600Z 01017G25KT 13/03 A3011 RMK A01 T01330032  RH  051%=      5-min Rain = 0
KKN1 171605Z 01019G27KT 13/03 A3012 RMK A01 T01320031  RH  051%=      5-min Rain = 0
KKN1 171610Z 01017G23KT 14/03 A3012 RMK A01 T01350032  RH  051%=      5-min Rain = 0
KKN1 171615Z 01018G24KT 14/03 A3012 RMK A01 T01360032  RH  050%=      5-min Rain = 0
KKN1 171620Z 01018G24KT 14/03 A3012 RMK A01 T01370033  RH  050%=      5-min Rain = 0
KKN1 171625Z 02019G24KT 14/03 A3012 RMK A01 T01370033  RH  050%=      5-min Rain = 0
KKN1 171630Z 01015G21KT 14/04 A3012 RMK A01 T01430035  RH  049%=      5-min Rain = 0
KKN1 171635Z 01015G22KT 14/04 A3012 RMK A01 T01430035  RH  049%=      5-min Rain = 0
KKN1 171640Z 00016G23KT 15/04 A3012 RMK A01 T01460035  RH  048%=      5-min Rain = 0
KKN1 171645Z 02019G26KT 15/03 A3012 RMK A01 T01450034  RH  048%=      5-min Rain = 0
KKN1 171650Z 02017G22KT 15/04 A3012 RMK A01 T01470035  RH  048%=      5-min Rain = 0
KKN1 171655Z 02017G22KT 15/04 A3012 RMK A01 T01500035  RH  047%=      5-min Rain = 0
KKN1 171700Z 02017G23KT 15/04 A3011 RMK A01 T01480035  RH  047%=      5-min Rain = 0
KKN1 171705Z 01016G22KT 15/04 A3011 RMK A01 T01510035  RH  047%=      5-min Rain = 0
KKN1 171710Z 02016G23KT 15/04 A3011 RMK A01 T01510036  RH  047%=      5-min Rain = 0
KKN1 171715Z 01015KT 15/04 A3011 RMK A01 T01530036  RH  046%=      5-min Rain = 0
KKN1 171720Z 02014KT 15/04 A3011 RMK A01 T01540037  RH  046%=      5-min Rain = 0
KKN1 171725Z 02014G19KT 16/04 A3011 RMK A01 T01580037  RH  045%=      5-min Rain = 0
KKN1 171730Z 01015G21KT 16/04 A301 RMK A01 T01600037  RH  045%=      5-min Rain = 0
KKN1 171735Z 02017G22KT 16/04 A301 RMK A01 T01580036  RH  045%=      5-min Rain = 0
KKN1 171740Z 01015G20KT 16/04 A301 RMK A01 T01620037  RH  044%=      5-min Rain = 0
KKN1 171745Z 02014G21KT 16/04 A301 RMK A01 T01630037  RH  044%=      5-min Rain = 0
KKN1 171750Z 02015G20KT 17/04 A301 RMK A01 T01660037  RH  043%=      5-min Rain = 0
KKN1 171755Z 01014G21KT 17/04 A301 RMK A01 T01670037  RH  043%=      5-min Rain = 0
KKN1 171800Z 01014G21KT 17/04 A301 RMK A01 T01680038  RH  043%=      5-min Rain = 0
KKN1 171805Z 00015G21KT 17/04 A301 RMK A01 T01710038  RH  042%=      5-min Rain = 0
KKN1 171810Z 02014KT 17/04 A301 RMK A01 T01690038  RH  042%=      5-min Rain = 0
KKN1 171815Z 36015KT 17/04 A301 RMK A01 T01720038  RH  042%=      5-min Rain = 0
KKN1 171820Z 02014G21KT 17/04 A301 RMK A01 T01720038  RH  042%=      5-min Rain = 0
KKN1 171825Z 02015G21KT 17/04 A301 RMK A01 T01730038  RH  041%=      5-min Rain = 0
KKN1 171830Z 02014G19KT 17/04 A3009 RMK A01 T01730037  RH  041%=      5-min Rain = 0
KKN1 171835Z 00013KT 18/04 A3009 RMK A01 T01750038  RH  041%=      5-min Rain = 0
KKN1 171840Z 01013G18KT 18/04 A3009 RMK A01 T01760039  RH  041%=      5-min Rain = 0
KKN1 171845Z 02015G20KT 18/04 A3009 RMK A01 T01790039  RH  040%=      5-min Rain = 0
KKN1 171850Z 01014G19KT 18/04 A3009 RMK A01 T01790037  RH  040%=      5-min Rain = 0
KKN1 171855Z 01016G21KT 18/04 A3009 RMK A01 T01790037  RH  040%=      5-min Rain = 0
KKN1 171900Z 02016KT 18/04 A3009 RMK A01 T01760036  RH  040%=      5-min Rain = 0
KKN1 171905Z 00015KT 18/04 A3008 RMK A01 T01780036  RH  039%=      5-min Rain = 0
KKN1 171910Z 36015KT 18/04 A3008 RMK A01 T01810036  RH  039%=      5-min Rain = 0
KKN1 171915Z 01014G21KT 18/04 A3008 RMK A01 T01820036  RH  039%=      5-min Rain = 0
KKN1 171920Z 02014G19KT 18/04 A3008 RMK A01 T01810035  RH  039%=      5-min Rain = 0
KKN1 171925Z 01013G19KT 18/04 A3008 RMK A01 T01840037  RH  038%=      5-min Rain = 0
KKN1 171930Z 36014G19KT 19/04 A3008 RMK A01 T01860036  RH  038%=      5-min Rain = 0
KKN1 171935Z 01014G21KT 19/04 A3008 RMK A01 T01880037  RH  038%=      5-min Rain = 0
KKN1 171940Z 01015G21KT 19/04 A3008 RMK A01 T01850037  RH  038%=      5-min Rain = 0
KKN1 171945Z 02013G18KT 19/04 A3007 RMK A01 T01850038  RH  038%=      5-min Rain = 0
KKN1 171950Z 02015G21KT 19/04 A3007 RMK A01 T01850038  RH  038%=      5-min Rain = 0
KKN1 171955Z 01012G18KT 19/04 A3007 RMK A01 T01870039  RH  038%=      5-min Rain = 0
KKN1 172000Z 00014G22KT 19/04 A3006 RMK A01 T01900039  RH  038%=      5-min Rain = 0
KKN1 172005Z 01012G18KT 19/04 A3006 RMK A01 T01880040  RH  038%=      5-min Rain = 0
KKN1 172010Z 00013G20KT 19/04 A3006 RMK A01 T01900040  RH  038%=      5-min Rain = 0
KKN1 172015Z 02012G20KT 19/04 A3006 RMK A01 T01870040  RH  038%=      5-min Rain = 0
KKN1 172020Z 00013G19KT 19/04 A3006 RMK A01 T01880040  RH  038%=      5-min Rain = 0
KKN1 172025Z 01012G17KT 19/04 A3006 RMK A01 T01880040  RH  038%=      5-min Rain = 0
KKN1 172030Z 01013G19KT 19/04 A3006 RMK A01 T01870040  RH  038%=      5-min Rain = 0
KKN1 172035Z 02012G18KT 19/04 A3006 RMK A01 T01890041  RH  038%=      5-min Rain = 0
KKN1 172040Z 01010KT 19/04 A3006 RMK A01 T01870040  RH  038%=      5-min Rain = 0
KKN1 172045Z 01010G16KT 19/04 A3006 RMK A01 T01890040  RH  038%=      5-min Rain = 0
KKN1 172050Z 36008G13KT 19/04 A3005 RMK A01 T01880040  RH  038%=      5-min Rain = 0
KKN1 172055Z 00011KT 19/04 A3005 RMK A01 T01890040  RH  038%=      5-min Rain = 0
KKN1 172100Z 01010KT 19/04 A3005 RMK A01 T01890040  RH  038%=      5-min Rain = 0
KKN1 172105Z 00009KT 19/04 A3005 RMK A01 T01890040  RH  038%=      5-min Rain = 0
KKN1 172110Z 36010KT 19/04 A3005 RMK A01 T01910039  RH  037%=      5-min Rain = 0
KKN1 172115Z 36008G15KT 19/04 A3005 RMK A01 T01880038  RH  038%=      5-min Rain = 0
KKN1 172120Z 02008G15KT 19/04 A3005 RMK A01 T01900039  RH  037%=      5-min Rain = 0
KKN1 172125Z 02009G14KT 19/04 A3005 RMK A01 T01900038  RH  037%=      5-min Rain = 0
KKN1 172130Z 02010KT 19/04 A3005 RMK A01 T01880038  RH  038%=      5-min Rain = 0
KKN1 172135Z 03008KT 19/04 A3005 RMK A01 T01890038  RH  038%=      5-min Rain = 0
KKN1 172140Z 01008KT 19/04 A3005 RMK A01 T01890039  RH  038%=      5-min Rain = 0
KKN1 172145Z 00008KT 19/04 A3005 RMK A01 T01900038  RH  037%=      5-min Rain = 0
KKN1 172150Z 00007KT 19/04 A3005 RMK A01 T01890038  RH  038%=      5-min Rain = 0
KKN1 172155Z 00008KT 19/04 A3005 RMK A01 T01900038  RH  037%=      5-min Rain = 0
KKN1 172200Z 36008KT 19/04 A3005 RMK A01 T01890037  RH  037%=      5-min Rain = 0
KKN1 172205Z 02007KT 19/04 A3005 RMK A01 T01880037  RH  038%=      5-min Rain = 0
KKN1 172210Z 00008KT 19/04 A3005 RMK A01 T01880038  RH  038%=      5-min Rain = 0
KKN1 172215Z 36007KT 19/04 A3005 RMK A01 T01880037  RH  038%=      5-min Rain = 0
KKN1 172220Z 36007KT 19/04 A3005 RMK A01 T01870037  RH  038%=      5-min Rain = 0
KKN1 172225Z 35006KT 19/04 A3005 RMK A01 T01870037  RH  037%=      5-min Rain = 0
KKN1 172230Z 01008KT 19/04 A3005 RMK A01 T01850037  RH  038%=      5-min Rain = 0
KKN1 172235Z 02006KT 18/04 A3005 RMK A01 T01830038  RH  039%=      5-min Rain = 0
KKN1 172240Z 00006KT 18/04 A3005 RMK A01 T01830038  RH  039%=      5-min Rain = 0
KKN1 172245Z 02006KT 18/04 A3005 RMK A01 T01820038  RH  039%=      5-min Rain = 0
KKN1 172250Z 01007KT 18/04 A3005 RMK A01 T01810036  RH  039%=      5-min Rain = 0
KKN1 172255Z 01007KT 18/04 A3005 RMK A01 T01800036  RH  039%=      5-min Rain = 0
KKN1 172300Z 01006KT 18/04 A3005 RMK A01 T01780036  RH  039%=      5-min Rain = 0
KKN1 172305Z 03006KT 18/04 A3005 RMK A01 T01760037  RH  040%=      5-min Rain = 0
KKN1 172310Z 03006KT 17/04 A3005 RMK A01 T01720037  RH  041%=      5-min Rain = 0
KKN1 172315Z 03006KT 17/04 A3005 RMK A01 T01700037  RH  042%=      5-min Rain = 0
KKN1 172320Z 03004KT 17/04 A3005 RMK A01 T01660037  RH  043%=      5-min Rain = 0
KKN1 172325Z 03004KT 16/04 A3006 RMK A01 T01620036  RH  044%=      5-min Rain = 0
KKN1 172330Z 04004KT 16/04 A3006 RMK A01 T01580035  RH  045%=      5-min Rain = 0
KKN1 172335Z 04004KT 15/04 A3006 RMK A01 T01530035  RH  046%=      5-min Rain = 0
KKN1 172340Z 04004KT 15/03 A3006 RMK A01 T01480034  RH  047%=      5-min Rain = 0
KKN1 172345Z 04004KT 15/03 A3006 RMK A01 T01460034  RH  048%=      5-min Rain = 0
KKN1 172350Z 04004KT 15/04 A3006 RMK A01 T01450035  RH  048%=      5-min Rain = 0
KKN1 172355Z 04003KT 15/04 A3006 RMK A01 T01460035  RH  048%=      5-min Rain = 0
KKN1 180000Z 03003KT 15/03 A3006 RMK A01 T01450034  RH  048%=      5-min Rain = 0
KKN1 180005Z 03004KT 14/03 A3006 RMK A01 T01430034  RH  049%=      5-min Rain = 0
KKN1 180010Z 02004KT 15/03 A3006 RMK A01 T01450034  RH  048%=      5-min Rain = 0
KKN1 180015Z 03004KT 14/03 A3006 RMK A01 T01380033  RH  050%=      5-min Rain = 0
KKN1 180020Z 03004KT 13/03 A3006 RMK A01 T01320033  RH  052%=      5-min Rain = 0
KKN1 180025Z 02003KT 13/03 A3007 RMK A01 T01300033  RH  053%=      5-min Rain = 0
KKN1 180030Z 02004KT 13/03 A3007 RMK A01 T01320033  RH  052%=      5-min Rain = 0
KKN1 180035Z 02004KT 13/03 A3007 RMK A01 T01320032  RH  052%=      5-min Rain = 0
KKN1 180040Z 01004KT 13/03 A3007 RMK A01 T01270031  RH  053%=      5-min Rain = 0
KKN1 180045Z 01004KT 13/03 A3008 RMK A01 T01250032  RH  054%=      5-min Rain = 0
KKN1 180050Z 01004KT 12/03 A3008 RMK A01 T01240032  RH  054%=      5-min Rain = 0
KKN1 180055Z 01004KT 12/03 A3008 RMK A01 T01230032  RH  055%=      5-min Rain = 0
KKN1 180100Z 02003KT 12/03 A3008 RMK A01 T01190032  RH  056%=      5-min Rain = 0
KKN1 180105Z 02003KT 11/03 A3008 RMK A01 T01130032  RH  058%=      5-min Rain = 0
KKN1 180110Z 02002KT 11/04 A3008 RMK A01 T01100035  RH  061%=      5-min Rain = 0
KKN1 180115Z 04001KT 10/04 A3008 RMK A01 T01010039  RH  067%=      5-min Rain = 0
KKN1 180120Z 06002KT 10/04 A3008 RMK A01 T00950035  RH  067%=      5-min Rain = 0
KKN1 180125Z 05002KT 09/03 A3008 RMK A01 T00940034  RH  068%=      5-min Rain = 0
KKN1 180130Z 05002KT 09/04 A3008 RMK A01 T00910035  RH  069%=      5-min Rain = 0
KKN1 180135Z 05002KT 09/04 A3008 RMK A01 T00900036  RH  070%=      5-min Rain = 0
KKN1 180140Z 05001KT 09/04 A3008 RMK A01 T00930038  RH  070%=      5-min Rain = 0
KKN1 180145Z 00000KT 09/04 A3008 RMK A01 T00930035  RH  068%=      5-min Rain = 0
KKN1 180150Z 05001KT 09/03 A3008 RMK A01 T00870032  RH  070%=      5-min Rain = 0
KKN1 180155Z 05001KT 09/04 A3008 RMK A01 T00860035  RH  072%=      5-min Rain = 0
KKN1 180200Z 04001KT 09/04 A3008 RMK A01 T00850036  RH  073%=      5-min Rain = 0
KKN1 180205Z 02002KT 10/03 A3008 RMK A01 T00960033  RH  066%=      5-min Rain = 0
KKN1 180210Z 02003KT 11/03 A3008 RMK A01 T01050031  RH  061%=      5-min Rain = 0
KKN1 180215Z 01004KT 10/03 A3008 RMK A01 T01040031  RH  062%=      5-min Rain = 0
KKN1 180220Z 01003KT 11/03 A3008 RMK A01 T01050030  RH  061%=      5-min Rain = 0
KKN1 180225Z 00001KT 09/03 A3009 RMK A01 T00890033  RH  070%=      5-min Rain = 0
KKN1 180230Z 21002KT 07/03 A3009 RMK A01 T00740032  RH  076%=      5-min Rain = 0
KKN1 180235Z 21002KT 07/03 A3009 RMK A01 T00700030  RH  077%=      5-min Rain = 0
KKN1 180240Z 21002KT 07/03 A3009 RMK A01 T00680028  RH  077%=      5-min Rain = 0
KKN1 180245Z 21002KT 07/03 A3009 RMK A01 T00660028  RH  078%=      5-min Rain = 0
KKN1 180250Z 21003KT 07/03 A3009 RMK A01 T00660027  RH  078%=      5-min Rain = 0
KKN1 180255Z 23004KT 07/03 A301 RMK A01 T00660028  RH  078%=      5-min Rain = 0
KKN1 180300Z 24005KT 07/03 A301 RMK A01 T00740032  RH  076%=      5-min Rain = 0
KKN1 180305Z 25004KT 09/03 A301 RMK A01 T00850032  RH  070%=      5-min Rain = 0
KKN1 180310Z 25004KT 09/03 A301 RMK A01 T00860030  RH  069%=      5-min Rain = 0
KKN1 180315Z 27004KT 08/03 A3009 RMK A01 T00810029  RH  071%=      5-min Rain = 0
KKN1 180320Z 30004KT 07/03 A3009 RMK A01 T00720027  RH  075%=      5-min Rain = 0
KKN1 180325Z 31004KT 06/03 A3009 RMK A01 T00640025  RH  077%=      5-min Rain = 0
KKN1 180330Z 31004KT 07/03 A3009 RMK A01 T00660028  RH  078%=      5-min Rain = 0
KKN1 180335Z 28002KT 07/03 A3009 RMK A01 T00680029  RH  078%=      5-min Rain = 0
KKN1 180340Z 23002KT 06/03 A3009 RMK A01 T00640028  RH  079%=      5-min Rain = 0
KKN1 180345Z 23002KT 06/03 A3009 RMK A01 T00620029  RH  081%=      5-min Rain = 0
KKN1 180350Z 23003KT 06/03 A3009 RMK A01 T00590028  RH  082%=      5-min Rain = 0
KKN1 180355Z 23002KT 06/03 A3009 RMK A01 T00590030  RH  083%=      5-min Rain = 0
KKN1 180400Z 22003KT 06/03 A3009 RMK A01 T00580031  RH  084%=      5-min Rain = 0
KKN1 180405Z 20006KT 06/03 A3009 RMK A01 T00570029  RH  084%=      5-min Rain = 0
KKN1 180410Z 21006KT 06/03 A3009 RMK A01 T00550026  RH  083%=      5-min Rain = 0
KKN1 180415Z 21005KT 05/03 A3009 RMK A01 T00540026  RH  084%=      5-min Rain = 0
KKN1 180420Z 21005KT 05/03 A3009 RMK A01 T00540026  RH  083%=      5-min Rain = 0
KKN1 180425Z 22004KT 05/03 A3008 RMK A01 T00540026  RH  083%=      5-min Rain = 0
KKN1 180430Z 24003KT 06/03 A3008 RMK A01 T00560027  RH  083%=      5-min Rain = 0
KKN1 180435Z 24003KT 06/03 A3008 RMK A01 T00560027  RH  083%=      5-min Rain = 0
KKN1 180440Z 25003KT 05/03 A3008 RMK A01 T00540025  RH  083%=      5-min Rain = 0
KKN1 180445Z 25003KT 05/03 A3008 RMK A01 T00530026  RH  084%=      5-min Rain = 0
KKN1 180450Z 25003KT 05/03 A3008 RMK A01 T00540027  RH  084%=      5-min Rain = 0
KKN1 180455Z 22005KT 05/03 A3008 RMK A01 T00530027  RH  084%=      5-min Rain = 0
KKN1 180500Z 22005KT 05/02 A3008 RMK A01 T00490024  RH  085%=      5-min Rain = 0
KKN1 180505Z 23006KT 05/02 A3007 RMK A01 T00470023  RH  086%=      5-min Rain = 0
KKN1 180510Z 24005KT 05/03 A3007 RMK A01 T00500027  RH  086%=      5-min Rain = 0
KKN1 180515Z 25002KT 06/03 A3007 RMK A01 T00560027  RH  083%=      5-min Rain = 0
KKN1 180520Z 26003KT 05/03 A3007 RMK A01 T00530025  RH  083%=      5-min Rain = 0
KKN1 180525Z 24004KT 05/03 A3007 RMK A01 T00510025  RH  085%=      5-min Rain = 0
KKN1 180530Z 23004KT 05/03 A3007 RMK A01 T00480025  RH  087%=      5-min Rain = 0
KKN1 180535Z 23004KT 05/03 A3007 RMK A01 T00470025  RH  087%=      5-min Rain = 0
KKN1 180540Z 23004KT 05/02 A3006 RMK A01 T00460024  RH  087%=      5-min Rain = 0
KKN1 180545Z 22005KT 04/02 A3006 RMK A01 T00440023  RH  088%=      5-min Rain = 0
KKN1 180550Z 22004KT 04/02 A3006 RMK A01 T00440024  RH  088%=      5-min Rain = 0
KKN1 180555Z 22004KT 04/02 A3006 RMK A01 T00420023  RH  088%=      5-min Rain = 0

Page generated in 0.009 seconds.